sensor_id;sensor_type;location;lat;lon;timestamp;pressure;altitude;pressure_sealevel;temperature;humidity
11523;BME280;40093;43.224;27.910;2022-10-16T00:01:15;101194.63;;;13.49;97.48
11523;BME280;40093;43.224;27.910;2022-10-16T00:03:44;101189.97;;;13.57;97.06
11523;BME280;40093;43.224;27.910;2022-10-16T00:06:11;101183.16;;;13.47;96.71
11523;BME280;40093;43.224;27.910;2022-10-16T00:08:39;101183.88;;;13.41;97.02
11523;BME280;40093;43.224;27.910;2022-10-16T00:11:10;101193.34;;;13.40;97.25
11523;BME280;40093;43.224;27.910;2022-10-16T00:13:38;101201.47;;;13.26;98.23
11523;BME280;40093;43.224;27.910;2022-10-16T00:16:06;101204.88;;;13.12;99.47
11523;BME280;40093;43.224;27.910;2022-10-16T00:18:33;101199.28;;;13.09;99.56
11523;BME280;40093;43.224;27.910;2022-10-16T00:21:03;101203.88;;;12.98;99.91
11523;BME280;40093;43.224;27.910;2022-10-16T00:23:30;101203.13;;;13.01;99.63
11523;BME280;40093;43.224;27.910;2022-10-16T00:25:59;101189.53;;;12.89;100.00
11523;BME280;40093;43.224;27.910;2022-10-16T00:28:28;101195.47;;;12.91;99.93
11523;BME280;40093;43.224;27.910;2022-10-16T00:30:56;101206.44;;;12.84;100.00
11523;BME280;40093;43.224;27.910;2022-10-16T00:33:23;101205.25;;;12.85;100.00
11523;BME280;40093;43.224;27.910;2022-10-16T00:35:49;101200.47;;;12.82;100.00
11523;BME280;40093;43.224;27.910;2022-10-16T00:38:17;101196.44;;;12.76;100.00
11523;BME280;40093;43.224;27.910;2022-10-16T00:40:43;101192.66;;;12.87;99.54
11523;BME280;40093;43.224;27.910;2022-10-16T00:43:32;101189.34;;;12.75;99.40
11523;BME280;40093;43.224;27.910;2022-10-16T00:46:02;101194.16;;;12.81;99.40
11523;BME280;40093;43.224;27.910;2022-10-16T00:48:30;101187.81;;;12.81;98.87
11523;BME280;40093;43.224;27.910;2022-10-16T00:50:57;101187.00;;;12.77;98.94
11523;BME280;40093;43.224;27.910;2022-10-16T00:53:25;101181.47;;;12.77;98.12
11523;BME280;40093;43.224;27.910;2022-10-16T00:55:52;101183.56;;;12.57;98.80
11523;BME280;40093;43.224;27.910;2022-10-16T00:58:19;101174.41;;;12.53;99.44
11523;BME280;40093;43.224;27.910;2022-10-16T01:00:46;101185.22;;;12.62;99.26
11523;BME280;40093;43.224;27.910;2022-10-16T01:03:27;101179.56;;;12.55;99.02
11523;BME280;40093;43.224;27.910;2022-10-16T01:06:03;101170.06;;;12.52;99.12
11523;BME280;40093;43.224;27.910;2022-10-16T01:08:39;101186.75;;;12.59;98.78
11523;BME280;40093;43.224;27.910;2022-10-16T01:11:17;101189.03;;;12.54;99.03
11523;BME280;40093;43.224;27.910;2022-10-16T01:13:52;101191.47;;;12.59;98.51
11523;BME280;40093;43.224;27.910;2022-10-16T01:16:28;101201.09;;;12.68;97.83
11523;BME280;40093;43.224;27.910;2022-10-16T01:19:06;101210.69;;;12.52;98.50
11523;BME280;40093;43.224;27.910;2022-10-16T01:21:38;101200.72;;;12.44;98.54
11523;BME280;40093;43.224;27.910;2022-10-16T01:24:11;101208.78;;;12.56;98.57
11523;BME280;40093;43.224;27.910;2022-10-16T01:27:00;101213.13;;;12.57;98.07
11523;BME280;40093;43.224;27.910;2022-10-16T01:29:31;101206.44;;;12.58;97.52
11523;BME280;40093;43.224;27.910;2022-10-16T01:32:06;101217.41;;;12.54;97.22
11523;BME280;40093;43.224;27.910;2022-10-16T01:34:40;101220.16;;;12.51;97.41
11523;BME280;40093;43.224;27.910;2022-10-16T01:37:12;101222.66;;;12.37;98.29
11523;BME280;40093;43.224;27.910;2022-10-16T01:39:42;101221.13;;;12.39;98.02
11523;BME280;40093;43.224;27.910;2022-10-16T01:42:17;101234.69;;;12.48;97.71
11523;BME280;40093;43.224;27.910;2022-10-16T01:44:46;101229.09;;;12.44;97.45
11523;BME280;40093;43.224;27.910;2022-10-16T01:47:15;101230.81;;;12.52;97.23
11523;BME280;40093;43.224;27.910;2022-10-16T01:49:44;101233.22;;;12.54;96.58
11523;BME280;40093;43.224;27.910;2022-10-16T01:52:14;101231.19;;;12.51;96.74
11523;BME280;40093;43.224;27.910;2022-10-16T01:54:43;101233.41;;;12.42;96.86
11523;BME280;40093;43.224;27.910;2022-10-16T01:57:14;101232.00;;;12.29;97.60
11523;BME280;40093;43.224;27.910;2022-10-16T01:59:45;101217.78;;;12.27;98.27
11523;BME280;40093;43.224;27.910;2022-10-16T02:02:15;101223.13;;;12.17;98.42
11523;BME280;40093;43.224;27.910;2022-10-16T02:04:46;101224.88;;;12.28;98.04
11523;BME280;40093;43.224;27.910;2022-10-16T02:07:15;101220.06;;;12.22;98.39
11523;BME280;40093;43.224;27.910;2022-10-16T02:09:42;101225.34;;;12.30;97.81
11523;BME280;40093;43.224;27.910;2022-10-16T02:12:15;101227.34;;;12.33;96.98
11523;BME280;40093;43.224;27.910;2022-10-16T02:14:45;101210.66;;;12.26;96.79
11523;BME280;40093;43.224;27.910;2022-10-16T02:17:14;101219.38;;;12.28;96.39
11523;BME280;40093;43.224;27.910;2022-10-16T02:19:42;101210.56;;;12.19;96.08
11523;BME280;40093;43.224;27.910;2022-10-16T02:22:15;101217.63;;;12.17;96.57
11523;BME280;40093;43.224;27.910;2022-10-16T02:24:49;101215.41;;;12.03;96.63
11523;BME280;40093;43.224;27.910;2022-10-16T02:27:24;101227.63;;;12.02;96.01
11523;BME280;40093;43.224;27.910;2022-10-16T02:29:56;101223.56;;;11.96;95.72
11523;BME280;40093;43.224;27.910;2022-10-16T02:32:30;101222.72;;;11.92;95.61
11523;BME280;40093;43.224;27.910;2022-10-16T02:35:00;101218.63;;;11.86;95.70
11523;BME280;40093;43.224;27.910;2022-10-16T02:37:28;101227.38;;;11.88;95.27
11523;BME280;40093;43.224;27.910;2022-10-16T02:39:56;101238.50;;;11.95;94.72
11523;BME280;40093;43.224;27.910;2022-10-16T02:42:29;101236.00;;;11.87;93.86
11523;BME280;40093;43.224;27.910;2022-10-16T02:44:59;101252.22;;;11.92;93.67
11523;BME280;40093;43.224;27.910;2022-10-16T02:47:26;101243.31;;;11.98;92.47
11523;BME280;40093;43.224;27.910;2022-10-16T02:49:52;101229.03;;;11.93;91.97
11523;BME280;40093;43.224;27.910;2022-10-16T02:52:19;101235.09;;;11.79;92.22
11523;BME280;40093;43.224;27.910;2022-10-16T02:54:46;101249.28;;;11.81;92.04
11523;BME280;40093;43.224;27.910;2022-10-16T02:57:13;101245.22;;;11.75;92.40
11523;BME280;40093;43.224;27.910;2022-10-16T02:59:41;101231.09;;;11.77;92.10
11523;BME280;40093;43.224;27.910;2022-10-16T03:02:08;101254.06;;;11.84;91.54
11523;BME280;40093;43.224;27.910;2022-10-16T03:04:35;101246.97;;;11.83;91.27
11523;BME280;40093;43.224;27.910;2022-10-16T03:07:03;101251.03;;;11.89;90.94
11523;BME280;40093;43.224;27.910;2022-10-16T03:09:30;101249.28;;;11.81;91.00
11523;BME280;40093;43.224;27.910;2022-10-16T03:11:56;101254.38;;;11.79;91.21
11523;BME280;40093;43.224;27.910;2022-10-16T03:14:23;101254.75;;;11.78;91.25
11523;BME280;40093;43.224;27.910;2022-10-16T03:16:52;101251.13;;;11.74;91.28
11523;BME280;40093;43.224;27.910;2022-10-16T03:19:19;101241.56;;;11.68;91.42
11523;BME280;40093;43.224;27.910;2022-10-16T03:21:46;101267.03;;;11.61;91.81
11523;BME280;40093;43.224;27.910;2022-10-16T03:24:13;101256.28;;;11.56;92.45
11523;BME280;40093;43.224;27.910;2022-10-16T03:26:39;101245.72;;;11.58;92.30
11523;BME280;40093;43.224;27.910;2022-10-16T03:29:06;101247.44;;;11.66;91.66
11523;BME280;40093;43.224;27.910;2022-10-16T03:31:33;101251.66;;;11.60;91.84
11523;BME280;40093;43.224;27.910;2022-10-16T03:34:02;101249.16;;;11.55;92.40
11523;BME280;40093;43.224;27.910;2022-10-16T03:36:28;101243.22;;;11.34;93.22
11523;BME280;40093;43.224;27.910;2022-10-16T03:38:55;101238.00;;;11.29;93.97
11523;BME280;40093;43.224;27.910;2022-10-16T03:41:22;101247.59;;;11.35;93.38
11523;BME280;40093;43.224;27.910;2022-10-16T03:43:50;101255.97;;;11.42;93.48
11523;BME280;40093;43.224;27.910;2022-10-16T03:46:16;101269.31;;;11.40;93.74
11523;BME280;40093;43.224;27.910;2022-10-16T03:48:43;101274.56;;;11.45;93.30
11523;BME280;40093;43.224;27.910;2022-10-16T03:51:12;101268.25;;;11.45;93.50
11523;BME280;40093;43.224;27.910;2022-10-16T03:53:38;101267.56;;;11.51;93.31
11523;BME280;40093;43.224;27.910;2022-10-16T03:56:06;101266.00;;;11.50;93.16
11523;BME280;40093;43.224;27.910;2022-10-16T03:58:32;101254.75;;;11.40;93.77
11523;BME280;40093;43.224;27.910;2022-10-16T04:00:59;101250.88;;;11.44;94.11
11523;BME280;40093;43.224;27.910;2022-10-16T04:03:26;101263.41;;;11.57;93.20
11523;BME280;40093;43.224;27.910;2022-10-16T04:05:53;101263.84;;;11.59;93.04
11523;BME280;40093;43.224;27.910;2022-10-16T04:08:22;101270.22;;;11.63;93.22
11523;BME280;40093;43.224;27.910;2022-10-16T04:10:49;101271.13;;;11.71;92.35
11523;BME280;40093;43.224;27.910;2022-10-16T04:13:16;101267.44;;;11.82;91.89
11523;BME280;40093;43.224;27.910;2022-10-16T04:15:44;101254.47;;;11.64;92.57
11523;BME280;40093;43.224;27.910;2022-10-16T04:18:11;101274.72;;;11.71;92.29
11523;BME280;40093;43.224;27.910;2022-10-16T04:20:38;101270.50;;;11.77;91.64
11523;BME280;40093;43.224;27.910;2022-10-16T04:23:05;101280.19;;;11.90;91.02
11523;BME280;40093;43.224;27.910;2022-10-16T04:25:33;101274.09;;;12.00;90.04
11523;BME280;40093;43.224;27.910;2022-10-16T04:28:00;101275.09;;;11.92;90.09
11523;BME280;40093;43.224;27.910;2022-10-16T04:30:27;101283.91;;;11.79;90.58
11523;BME280;40093;43.224;27.910;2022-10-16T04:32:55;101274.94;;;11.63;91.12
11523;BME280;40093;43.224;27.910;2022-10-16T04:35:22;101273.00;;;11.48;92.31
11523;BME280;40093;43.224;27.910;2022-10-16T04:37:49;101278.59;;;11.51;92.78
11523;BME280;40093;43.224;27.910;2022-10-16T04:40:16;101292.94;;;11.57;92.09
11523;BME280;40093;43.224;27.910;2022-10-16T04:42:44;101288.38;;;11.49;91.97
11523;BME280;40093;43.224;27.910;2022-10-16T04:45:11;101294.28;;;11.47;92.19
11523;BME280;40093;43.224;27.910;2022-10-16T04:47:38;101294.63;;;11.46;92.49
11523;BME280;40093;43.224;27.910;2022-10-16T04:50:05;101303.84;;;11.53;92.16
11523;BME280;40093;43.224;27.910;2022-10-16T04:52:33;101294.50;;;11.58;91.46
11523;BME280;40093;43.224;27.910;2022-10-16T04:54:59;101306.69;;;11.76;90.94
11523;BME280;40093;43.224;27.910;2022-10-16T04:57:28;101308.44;;;11.84;91.05
11523;BME280;40093;43.224;27.910;2022-10-16T04:59:56;101308.03;;;12.04;90.00
11523;BME280;40093;43.224;27.910;2022-10-16T05:02:23;101314.56;;;12.15;88.39
11523;BME280;40093;43.224;27.910;2022-10-16T05:04:50;101314.31;;;12.24;88.13
11523;BME280;40093;43.224;27.910;2022-10-16T05:07:17;101316.94;;;12.39;87.37
11523;BME280;40093;43.224;27.910;2022-10-16T05:09:44;101313.75;;;12.59;86.45
11523;BME280;40093;43.224;27.910;2022-10-16T05:12:11;101312.13;;;12.81;85.22
11523;BME280;40093;43.224;27.910;2022-10-16T05:14:38;101326.28;;;13.02;84.30
11523;BME280;40093;43.224;27.910;2022-10-16T05:17:06;101334.47;;;13.21;82.39
11523;BME280;40093;43.224;27.910;2022-10-16T05:19:33;101345.69;;;13.61;80.38
11523;BME280;40093;43.224;27.910;2022-10-16T05:22:00;101340.47;;;13.89;78.80
11523;BME280;40093;43.224;27.910;2022-10-16T05:24:27;101349.06;;;14.13;76.33
11523;BME280;40093;43.224;27.910;2022-10-16T05:26:54;101353.72;;;14.39;75.38
11523;BME280;40093;43.224;27.910;2022-10-16T05:29:21;101354.97;;;14.45;73.70
11523;BME280;40093;43.224;27.910;2022-10-16T05:31:50;101372.63;;;14.70;72.83
11523;BME280;40093;43.224;27.910;2022-10-16T05:34:19;101364.97;;;15.03;70.96
11523;BME280;40093;43.224;27.910;2022-10-16T05:36:46;101354.78;;;15.21;69.19
11523;BME280;40093;43.224;27.910;2022-10-16T05:39:14;101373.75;;;15.15;68.34
11523;BME280;40093;43.224;27.910;2022-10-16T05:41:41;101363.41;;;15.02;68.98
11523;BME280;40093;43.224;27.910;2022-10-16T05:44:08;101369.81;;;15.13;68.93
11523;BME280;40093;43.224;27.910;2022-10-16T05:46:35;101371.81;;;14.66;68.91
11523;BME280;40093;43.224;27.910;2022-10-16T05:49:02;101370.91;;;14.58;69.86
11523;BME280;40093;43.224;27.910;2022-10-16T05:51:30;101377.66;;;14.61;69.81
11523;BME280;40093;43.224;27.910;2022-10-16T05:53:57;101363.41;;;14.19;71.44
11523;BME280;40093;43.224;27.910;2022-10-16T05:56:24;101368.34;;;14.36;71.85
11523;BME280;40093;43.224;27.910;2022-10-16T05:58:51;101375.78;;;14.32;72.13
11523;BME280;40093;43.224;27.910;2022-10-16T06:01:18;101380.47;;;14.64;70.93
11523;BME280;40093;43.224;27.910;2022-10-16T06:03:46;101382.31;;;14.93;69.53
11523;BME280;40093;43.224;27.910;2022-10-16T06:06:14;101390.94;;;14.85;69.36
11523;BME280;40093;43.224;27.910;2022-10-16T06:08:44;101399.09;;;15.10;68.05
11523;BME280;40093;43.224;27.910;2022-10-16T06:11:12;101397.47;;;15.06;68.53
11523;BME280;40093;43.224;27.910;2022-10-16T06:13:39;101390.75;;;14.64;69.84
11523;BME280;40093;43.224;27.910;2022-10-16T06:16:08;101394.16;;;14.87;68.88
11523;BME280;40093;43.224;27.910;2022-10-16T06:18:35;101391.84;;;14.99;68.16
11523;BME280;40093;43.224;27.910;2022-10-16T06:21:07;101384.69;;;14.94;68.76
11523;BME280;40093;43.224;27.910;2022-10-16T06:23:35;101393.72;;;15.31;67.84
11523;BME280;40093;43.224;27.910;2022-10-16T06:26:07;101384.66;;;15.38;67.53
11523;BME280;40093;43.224;27.910;2022-10-16T06:28:35;101393.34;;;14.86;69.55
11523;BME280;40093;43.224;27.910;2022-10-16T06:31:02;101397.53;;;15.13;69.59
11523;BME280;40093;43.224;27.910;2022-10-16T06:33:30;101398.91;;;15.36;68.91
11523;BME280;40093;43.224;27.910;2022-10-16T06:36:01;101388.22;;;15.42;68.69
11523;BME280;40093;43.224;27.910;2022-10-16T06:38:29;101394.34;;;15.14;69.71
11523;BME280;40093;43.224;27.910;2022-10-16T06:40:57;101405.81;;;15.63;69.21
11523;BME280;40093;43.224;27.910;2022-10-16T06:43:25;101396.00;;;15.22;69.63
11523;BME280;40093;43.224;27.910;2022-10-16T06:45:53;101394.50;;;15.32;69.31
11523;BME280;40093;43.224;27.910;2022-10-16T06:48:22;101412.25;;;15.81;68.71
11523;BME280;40093;43.224;27.910;2022-10-16T06:50:56;101409.75;;;15.59;69.02
11523;BME280;40093;43.224;27.910;2022-10-16T06:53:23;101420.25;;;15.93;68.52
11523;BME280;40093;43.224;27.910;2022-10-16T06:55:50;101426.69;;;16.18;67.29
11523;BME280;40093;43.224;27.910;2022-10-16T06:58:17;101426.41;;;16.41;65.99
11523;BME280;40093;43.224;27.910;2022-10-16T07:00:46;101432.41;;;16.60;65.81
11523;BME280;40093;43.224;27.910;2022-10-16T07:03:13;101428.00;;;16.52;66.38
11523;BME280;40093;43.224;27.910;2022-10-16T07:05:42;101437.97;;;16.74;64.75
11523;BME280;40093;43.224;27.910;2022-10-16T07:08:09;101437.22;;;16.91;64.46
11523;BME280;40093;43.224;27.910;2022-10-16T07:10:36;101449.13;;;17.34;63.88
11523;BME280;40093;43.224;27.910;2022-10-16T07:13:03;101432.06;;;17.42;62.50
11523;BME280;40093;43.224;27.910;2022-10-16T07:15:30;101441.97;;;17.29;61.52
11523;BME280;40093;43.224;27.910;2022-10-16T07:17:59;101452.31;;;17.11;62.61
11523;BME280;40093;43.224;27.910;2022-10-16T07:20:26;101447.56;;;17.19;62.26
11523;BME280;40093;43.224;27.910;2022-10-16T07:22:52;101462.25;;;17.30;61.69
11523;BME280;40093;43.224;27.910;2022-10-16T07:25:19;101446.75;;;17.43;61.87
11523;BME280;40093;43.224;27.910;2022-10-16T07:27:46;101455.91;;;17.57;61.19
11523;BME280;40093;43.224;27.910;2022-10-16T07:30:13;101450.72;;;17.73;60.67
11523;BME280;40093;43.224;27.910;2022-10-16T07:32:40;101445.16;;;17.73;59.24
11523;BME280;40093;43.224;27.910;2022-10-16T07:35:08;101442.28;;;17.94;58.26
11523;BME280;40093;43.224;27.910;2022-10-16T07:37:36;101446.66;;;17.95;58.11
11523;BME280;40093;43.224;27.910;2022-10-16T07:40:03;101451.06;;;17.85;58.30
11523;BME280;40093;43.224;27.910;2022-10-16T07:42:30;101449.78;;;18.11;57.75
11523;BME280;40093;43.224;27.910;2022-10-16T07:44:57;101453.84;;;17.89;58.28
11523;BME280;40093;43.224;27.910;2022-10-16T07:47:24;101433.84;;;18.15;57.79
11523;BME280;40093;43.224;27.910;2022-10-16T07:49:51;101448.13;;;18.24;57.15
11523;BME280;40093;43.224;27.910;2022-10-16T07:52:19;101459.22;;;18.41;55.35
11523;BME280;40093;43.224;27.910;2022-10-16T07:54:46;101464.41;;;18.43;55.74
11523;BME280;40093;43.224;27.910;2022-10-16T07:57:13;101461.75;;;17.97;57.54
11523;BME280;40093;43.224;27.910;2022-10-16T07:59:44;101455.41;;;17.90;57.63
11523;BME280;40093;43.224;27.910;2022-10-16T08:02:11;101454.13;;;18.19;57.30
11523;BME280;40093;43.224;27.910;2022-10-16T08:04:38;101456.25;;;17.76;58.03
11523;BME280;40093;43.224;27.910;2022-10-16T08:07:07;101450.53;;;18.15;57.24
11523;BME280;40093;43.224;27.910;2022-10-16T08:09:35;101460.09;;;18.31;56.60
11523;BME280;40093;43.224;27.910;2022-10-16T08:12:02;101469.50;;;18.55;54.69
11523;BME280;40093;43.224;27.910;2022-10-16T08:14:29;101460.28;;;18.65;54.28
11523;BME280;40093;43.224;27.910;2022-10-16T08:16:56;101460.72;;;18.60;53.48
11523;BME280;40093;43.224;27.910;2022-10-16T08:19:23;101454.34;;;18.63;53.40
11523;BME280;40093;43.224;27.910;2022-10-16T08:21:50;101453.78;;;18.06;54.43
11523;BME280;40093;43.224;27.910;2022-10-16T08:24:17;101461.66;;;18.22;54.65
11523;BME280;40093;43.224;27.910;2022-10-16T08:26:45;101466.41;;;18.39;54.55
11523;BME280;40093;43.224;27.910;2022-10-16T08:29:13;101464.25;;;18.71;53.33
11523;BME280;40093;43.224;27.910;2022-10-16T08:31:40;101468.28;;;18.63;52.47
11523;BME280;40093;43.224;27.910;2022-10-16T08:34:07;101441.63;;;18.58;52.28
11523;BME280;40093;43.224;27.910;2022-10-16T08:36:34;101455.66;;;19.02;51.93
11523;BME280;40093;43.224;27.910;2022-10-16T08:39:00;101467.06;;;19.25;50.67
11523;BME280;40093;43.224;27.910;2022-10-16T08:44:28;101469.03;;;19.28;49.31
11523;BME280;40093;43.224;27.910;2022-10-16T08:47:02;101481.00;;;19.25;49.35
11523;BME280;40093;43.224;27.910;2022-10-16T08:49:36;101469.25;;;18.97;49.65
11523;BME280;40093;43.224;27.910;2022-10-16T08:52:12;101476.06;;;18.89;50.30
11523;BME280;40093;43.224;27.910;2022-10-16T08:54:43;101482.66;;;19.16;49.89
11523;BME280;40093;43.224;27.910;2022-10-16T08:57:15;101484.91;;;19.38;49.35
11523;BME280;40093;43.224;27.910;2022-10-16T08:59:45;101485.06;;;19.14;49.33
11523;BME280;40093;43.224;27.910;2022-10-16T09:02:24;101485.22;;;18.93;48.39
11523;BME280;40093;43.224;27.910;2022-10-16T09:05:03;101480.06;;;18.88;48.79
11523;BME280;40093;43.224;27.910;2022-10-16T09:07:39;101490.94;;;18.72;49.11
11523;BME280;40093;43.224;27.910;2022-10-16T09:10:19;101490.28;;;18.43;50.21
11523;BME280;40093;43.224;27.910;2022-10-16T09:12:52;101482.34;;;18.35;50.90
11523;BME280;40093;43.224;27.910;2022-10-16T09:15:29;101480.66;;;18.51;50.80
11523;BME280;40093;43.224;27.910;2022-10-16T09:18:05;101484.59;;;18.64;50.04
11523;BME280;40093;43.224;27.910;2022-10-16T09:20:44;101490.09;;;18.75;49.43
11523;BME280;40093;43.224;27.910;2022-10-16T09:23:18;101482.84;;;18.88;49.06
11523;BME280;40093;43.224;27.910;2022-10-16T09:25:47;101487.56;;;19.01;48.51
11523;BME280;40093;43.224;27.910;2022-10-16T09:28:15;101481.13;;;19.08;48.46
11523;BME280;40093;43.224;27.910;2022-10-16T09:30:45;101486.72;;;19.04;48.42
11523;BME280;40093;43.224;27.910;2022-10-16T09:33:14;101496.66;;;19.09;47.82
11523;BME280;40093;43.224;27.910;2022-10-16T09:35:43;101489.88;;;19.10;47.47
11523;BME280;40093;43.224;27.910;2022-10-16T09:38:22;101489.88;;;19.10;48.15
11523;BME280;40093;43.224;27.910;2022-10-16T09:40:49;101491.53;;;19.04;47.63
11523;BME280;40093;43.224;27.910;2022-10-16T09:43:21;101493.47;;;19.10;47.67
11523;BME280;40093;43.224;27.910;2022-10-16T09:45:59;101495.34;;;18.66;49.34
11523;BME280;40093;43.224;27.910;2022-10-16T09:48:33;101476.44;;;18.94;49.18
11523;BME280;40093;43.224;27.910;2022-10-16T09:51:05;101489.19;;;18.95;48.93
11523;BME280;40093;43.224;27.910;2022-10-16T09:53:41;101481.13;;;19.08;48.10
11523;BME280;40093;43.224;27.910;2022-10-16T09:56:10;101471.47;;;19.23;47.23
11523;BME280;40093;43.224;27.910;2022-10-16T09:58:42;101500.53;;;19.25;46.73
11523;BME280;40093;43.224;27.910;2022-10-16T10:01:14;101479.56;;;19.00;47.48
11523;BME280;40093;43.224;27.910;2022-10-16T10:03:43;101475.53;;;19.08;47.78
11523;BME280;40093;43.224;27.910;2022-10-16T10:06:21;101491.44;;;19.14;46.96
11523;BME280;40093;43.224;27.910;2022-10-16T10:09:00;101477.88;;;19.20;47.21
11523;BME280;40093;43.224;27.910;2022-10-16T10:11:52;101487.31;;;19.36;47.31
11523;BME280;40093;43.224;27.910;2022-10-16T10:14:23;101480.28;;;19.14;47.07
11523;BME280;40093;43.224;27.910;2022-10-16T10:17:01;101489.78;;;19.27;46.75
11523;BME280;40093;43.224;27.910;2022-10-16T10:19:28;101484.16;;;19.31;46.57
11523;BME280;40093;43.224;27.910;2022-10-16T10:21:55;101467.59;;;19.06;47.25
11523;BME280;40093;43.224;27.910;2022-10-16T10:24:22;101472.94;;;19.38;47.06
11523;BME280;40093;43.224;27.910;2022-10-16T10:26:57;101474.53;;;19.35;46.92
11523;BME280;40093;43.224;27.910;2022-10-16T10:29:38;101481.59;;;19.50;46.82
11523;BME280;40093;43.224;27.910;2022-10-16T10:32:19;101475.13;;;19.60;46.40
11523;BME280;40093;43.224;27.910;2022-10-16T10:35:07;101466.31;;;19.62;45.87
11523;BME280;40093;43.224;27.910;2022-10-16T10:37:51;101480.22;;;19.69;45.37
11523;BME280;40093;43.224;27.910;2022-10-16T10:40:30;101478.88;;;19.84;44.65
11523;BME280;40093;43.224;27.910;2022-10-16T10:43:05;101481.03;;;20.10;44.01
11523;BME280;40093;43.224;27.910;2022-10-16T10:45:42;101481.69;;;20.21;44.26
11523;BME280;40093;43.224;27.910;2022-10-16T10:48:25;101482.81;;;19.90;44.56
11523;BME280;40093;43.224;27.910;2022-10-16T10:50:57;101484.72;;;19.59;44.52
11523;BME280;40093;43.224;27.910;2022-10-16T10:53:32;101470.91;;;19.42;45.16
11523;BME280;40093;43.224;27.910;2022-10-16T10:56:14;101474.19;;;19.74;45.04
11523;BME280;40093;43.224;27.910;2022-10-16T10:59:05;101463.63;;;19.92;44.55
11523;BME280;40093;43.224;27.910;2022-10-16T11:01:40;101458.25;;;19.71;44.16
11523;BME280;40093;43.224;27.910;2022-10-16T11:04:38;101462.09;;;19.47;44.94
11523;BME280;40093;43.224;27.910;2022-10-16T11:07:13;101448.25;;;19.73;44.33
11523;BME280;40093;43.224;27.910;2022-10-16T11:09:45;101443.78;;;19.79;43.95
11523;BME280;40093;43.224;27.910;2022-10-16T11:12:18;101446.13;;;19.88;44.00
11523;BME280;40093;43.224;27.910;2022-10-16T11:14:50;101448.44;;;19.93;44.34
11523;BME280;40093;43.224;27.910;2022-10-16T11:17:25;101459.63;;;19.93;43.16
11523;BME280;40093;43.224;27.910;2022-10-16T11:19:58;101460.31;;;20.04;43.13
11523;BME280;40093;43.224;27.910;2022-10-16T11:22:30;101465.91;;;20.04;42.85
11523;BME280;40093;43.224;27.910;2022-10-16T11:25:04;101456.69;;;20.07;43.02
11523;BME280;40093;43.224;27.910;2022-10-16T11:27:40;101460.63;;;20.13;42.80
11523;BME280;40093;43.224;27.910;2022-10-16T11:30:14;101467.13;;;20.36;42.79
11523;BME280;40093;43.224;27.910;2022-10-16T11:32:51;101463.34;;;20.20;41.05
11523;BME280;40093;43.224;27.910;2022-10-16T11:35:24;101467.69;;;19.84;41.56
11523;BME280;40093;43.224;27.910;2022-10-16T11:37:53;101476.47;;;19.86;42.59
11523;BME280;40093;43.224;27.910;2022-10-16T11:40:25;101463.00;;;19.74;43.41
11523;BME280;40093;43.224;27.910;2022-10-16T11:42:58;101460.75;;;19.62;43.47
11523;BME280;40093;43.224;27.910;2022-10-16T11:45:33;101457.94;;;19.62;43.92
11523;BME280;40093;43.224;27.910;2022-10-16T11:48:12;101459.63;;;19.56;44.17
11523;BME280;40093;43.224;27.910;2022-10-16T11:50:46;101461.34;;;19.80;43.95
11523;BME280;40093;43.224;27.910;2022-10-16T11:53:23;101454.47;;;19.91;44.00
11523;BME280;40093;43.224;27.910;2022-10-16T11:55:51;101459.22;;;19.94;43.32
11523;BME280;40093;43.224;27.910;2022-10-16T11:58:24;101458.88;;;19.89;42.77
11523;BME280;40093;43.224;27.910;2022-10-16T12:00:58;101454.41;;;19.58;42.79
11523;BME280;40093;43.224;27.910;2022-10-16T12:03:30;101457.00;;;19.38;41.89
11523;BME280;40093;43.224;27.910;2022-10-16T12:06:15;101462.59;;;19.35;42.46
11523;BME280;40093;43.224;27.910;2022-10-16T12:08:47;101456.81;;;19.08;43.72
11523;BME280;40093;43.224;27.910;2022-10-16T12:11:24;101463.09;;;19.23;44.10
11523;BME280;40093;43.224;27.910;2022-10-16T12:13:51;101468.09;;;19.42;44.61
11523;BME280;40093;43.224;27.910;2022-10-16T12:16:23;101463.19;;;19.56;44.58
11523;BME280;40093;43.224;27.910;2022-10-16T12:19:03;101471.09;;;19.65;44.21
11523;BME280;40093;43.224;27.910;2022-10-16T12:21:37;101460.63;;;19.76;44.42
11523;BME280;40093;43.224;27.910;2022-10-16T12:24:05;101458.19;;;19.78;44.05
11523;BME280;40093;43.224;27.910;2022-10-16T12:26:33;101465.13;;;19.63;44.36
11523;BME280;40093;43.224;27.910;2022-10-16T12:29:13;101474.81;;;19.51;44.77
11523;BME280;40093;43.224;27.910;2022-10-16T12:31:44;101474.34;;;19.60;44.22
11523;BME280;40093;43.224;27.910;2022-10-16T12:34:21;101482.47;;;19.44;43.91
11523;BME280;40093;43.224;27.910;2022-10-16T12:36:50;101487.28;;;19.40;43.75
11523;BME280;40093;43.224;27.910;2022-10-16T12:39:21;101480.06;;;19.46;43.04
11523;BME280;40093;43.224;27.910;2022-10-16T12:42:00;101482.91;;;19.39;43.17
11523;BME280;40093;43.224;27.910;2022-10-16T12:44:32;101498.53;;;19.33;43.40
11523;BME280;40093;43.224;27.910;2022-10-16T12:46:59;101492.09;;;19.36;43.65
11523;BME280;40093;43.224;27.910;2022-10-16T12:49:31;101494.56;;;19.27;43.90
11523;BME280;40093;43.224;27.910;2022-10-16T12:52:00;101504.09;;;19.33;44.21
11523;BME280;40093;43.224;27.910;2022-10-16T12:54:29;101502.66;;;19.07;44.80
11523;BME280;40093;43.224;27.910;2022-10-16T12:57:10;101488.34;;;19.02;44.93
11523;BME280;40093;43.224;27.910;2022-10-16T12:59:52;101498.28;;;19.06;44.55